Terminal Aerodrome Forecast
Issued by NWS Duluth, MN

Home | Current Version | Previous Version | Text Only | Print | Product List | Glossary On
Versions: 1 2 3 4 5 6 7 8 9 10 11 12
591
FTUS43 KDLH 220540
TAFINL
TAF
KINL 220540Z 2206/2306 03005KT P6SM OVC080
     FM221300 04007KT P6SM SCT150
      AMD NOT SKED=

USA.gov is the U.S. government's official web portal to all federal, state and local government web resources and services.